createdAt,value
2024-03-04T00:02:11.151Z,7.29
2024-03-04T00:05:14.880Z,7.18
2024-03-04T00:08:17.663Z,7.18
2024-03-04T00:11:21.767Z,7.15
2024-03-04T00:14:25.296Z,7.14
2024-03-04T00:17:28.703Z,7.10
2024-03-04T00:20:32.034Z,7.07
2024-03-04T00:23:37.619Z,7.08
2024-03-04T00:26:41.108Z,7.13
2024-03-04T00:29:44.171Z,7.08
2024-03-04T00:32:47.822Z,7.03
2024-03-04T00:35:50.877Z,7.06
2024-03-04T00:38:54.994Z,7.03
2024-03-04T00:41:58.029Z,7.05
2024-03-04T00:45:01.801Z,7.04
2024-03-04T00:48:05.353Z,7.00
2024-03-04T00:51:08.626Z,6.94
2024-03-04T00:54:12.024Z,6.95
2024-03-04T00:57:15.255Z,7.01
2024-03-04T01:00:19.656Z,6.98
2024-03-04T01:03:22.966Z,6.91
2024-03-04T01:06:29.251Z,6.89
2024-03-04T01:09:32.506Z,6.83
2024-03-04T01:12:35.422Z,6.76
2024-03-04T01:15:38.914Z,6.76
2024-03-04T01:18:42.453Z,6.80
2024-03-04T01:21:45.532Z,6.73
2024-03-04T01:24:52.263Z,6.68
2024-03-04T01:27:55.389Z,6.71
2024-03-04T01:30:58.441Z,6.73
2024-03-04T01:34:04.089Z,6.76
2024-03-04T01:37:11.843Z,6.72
2024-03-04T01:40:15.303Z,6.66
2024-03-04T01:43:20.176Z,6.65
2024-03-04T01:46:23.153Z,6.66
2024-03-04T01:49:27.116Z,6.67
2024-03-04T01:52:30.197Z,6.61
2024-03-04T01:55:40.976Z,6.64
2024-03-04T01:58:46.248Z,6.64
2024-03-04T02:01:52.403Z,6.65
2024-03-04T02:04:56.807Z,6.62
2024-03-04T02:08:03.455Z,6.56
2024-03-04T02:11:06.860Z,6.53
2024-03-04T02:14:09.991Z,6.51
2024-03-04T02:17:14.420Z,6.49
2024-03-04T02:20:19.804Z,6.43
2024-03-04T02:23:22.897Z,6.45
2024-03-04T02:26:26.194Z,6.42
2024-03-04T02:29:29.681Z,6.50
2024-03-04T02:32:33.101Z,6.49
2024-03-04T02:35:36.083Z,6.48
2024-03-04T02:38:39.336Z,6.38
2024-03-04T02:41:42.342Z,6.36
2024-03-04T02:44:46.687Z,6.39
2024-03-04T02:47:50.064Z,6.37
2024-03-04T02:50:53.119Z,6.36
2024-03-04T02:53:56.541Z,6.31
2024-03-04T02:57:04.051Z,6.31
2024-03-04T03:00:07.672Z,6.27
2024-03-04T03:03:10.617Z,6.28
2024-03-04T03:06:13.836Z,6.24
2024-03-04T03:09:16.852Z,6.17
2024-03-04T03:12:19.821Z,6.17
2024-03-04T03:15:23.053Z,6.13
2024-03-04T03:18:26.125Z,6.07
2024-03-04T03:21:29.515Z,6.06
2024-03-04T03:24:32.453Z,6.08
2024-03-04T03:27:35.552Z,6.08
2024-03-04T03:30:41.872Z,6.08
2024-03-04T03:33:45.060Z,6.14
2024-03-04T03:36:48.066Z,6.13
2024-03-04T03:39:50.961Z,6.13
2024-03-04T03:42:54.325Z,6.11
2024-03-04T03:45:57.153Z,5.97
2024-03-04T03:48:59.953Z,5.96
2024-03-04T03:52:03.599Z,5.95
2024-03-04T03:55:06.944Z,5.97
2024-03-04T03:58:10.273Z,5.95
2024-03-04T04:01:15.520Z,5.93
2024-03-04T04:04:19.731Z,5.96
2024-03-04T04:07:23.988Z,5.99
2024-03-04T04:10:27.736Z,5.95
2024-03-04T04:13:30.903Z,5.91
2024-03-04T04:16:35.036Z,5.98
2024-03-04T04:19:37.948Z,6.01
2024-03-04T04:22:42.560Z,5.97
2024-03-04T04:25:47.946Z,5.92
2024-03-04T04:28:51.300Z,5.90
2024-03-04T04:31:54.073Z,5.94
2024-03-04T04:34:57.214Z,5.96
2024-03-04T04:38:00.165Z,5.98
2024-03-04T04:41:03.516Z,6.02
2024-03-04T04:44:06.345Z,5.98
2024-03-04T04:47:09.077Z,5.95
2024-03-04T04:50:13.758Z,5.83
2024-03-04T04:53:16.933Z,5.91
2024-03-04T04:56:20.226Z,5.94
2024-03-04T04:59:23.119Z,5.82
2024-03-04T05:02:25.968Z,5.68
2024-03-04T05:05:28.820Z,5.63
2024-03-04T05:08:31.847Z,5.57
2024-03-04T05:11:34.777Z,5.60
2024-03-04T05:14:38.823Z,5.59
2024-03-04T05:17:42.113Z,5.59
2024-03-04T05:20:54.320Z,5.54
2024-03-04T05:23:59.815Z,5.52
2024-03-04T05:27:02.757Z,5.49
2024-03-04T05:30:10.542Z,5.55
2024-03-04T05:33:14.568Z,5.60
2024-03-04T05:36:18.532Z,5.63
2024-03-04T05:39:22.950Z,5.69
2024-03-04T05:42:26.030Z,5.83
2024-03-04T05:45:31.498Z,5.96
2024-03-04T05:48:34.668Z,6.09
2024-03-04T05:51:44.452Z,6.19
2024-03-04T05:54:47.591Z,6.27
2024-03-04T05:57:50.616Z,6.47
2024-03-04T06:00:53.348Z,6.49
2024-03-04T06:03:56.524Z,6.70
2024-03-04T06:07:01.797Z,6.79
2024-03-04T06:10:05.430Z,6.91
2024-03-04T06:13:08.623Z,7.04
2024-03-04T06:16:15.907Z,7.23
2024-03-04T06:19:19.020Z,7.41
2024-03-04T06:22:21.995Z,7.49
2024-03-04T06:25:24.956Z,7.54
2024-03-04T06:28:28.001Z,7.69
2024-03-04T06:31:30.953Z,7.87
2024-03-04T06:34:34.130Z,7.93
2024-03-04T06:37:37.136Z,8.02
2024-03-04T06:40:40.133Z,8.04
2024-03-04T06:43:43.586Z,8.29
2024-03-04T06:46:46.651Z,8.29
2024-03-04T06:49:50.757Z,8.48
2024-03-04T06:52:53.730Z,8.60
2024-03-04T06:55:56.650Z,8.79
2024-03-04T06:59:02.867Z,8.95
2024-03-04T07:02:06.446Z,8.79
2024-03-04T07:05:09.801Z,8.93
2024-03-04T07:08:12.597Z,9.01
2024-03-04T07:11:16.565Z,9.28
2024-03-04T07:14:19.462Z,9.45
2024-03-04T07:17:22.391Z,9.41
2024-03-04T07:20:25.120Z,9.40
2024-03-04T07:23:28.077Z,9.50
2024-03-04T07:26:30.977Z,9.74
2024-03-04T07:29:48.658Z,10.08
2024-03-04T07:32:55.547Z,10.39
2024-03-04T07:35:58.777Z,10.58
2024-03-04T07:39:01.617Z,10.67
2024-03-04T07:42:04.497Z,10.74
2024-03-04T07:45:08.471Z,10.93
2024-03-04T07:48:11.339Z,11.17
2024-03-04T07:51:14.369Z,11.15
2024-03-04T07:54:17.756Z,11.11
2024-03-04T07:57:23.968Z,11.35
2024-03-04T08:00:27.853Z,11.20
2024-03-04T08:03:30.580Z,11.58
2024-03-04T08:06:34.373Z,11.64
2024-03-04T08:09:37.212Z,11.72
2024-03-04T08:12:39.988Z,11.88
2024-03-04T08:15:42.836Z,11.75
2024-03-04T08:18:45.756Z,12.06
2024-03-04T08:21:49.050Z,12.06
2024-03-04T08:24:51.899Z,12.12
2024-03-04T08:27:54.668Z,12.00
2024-03-04T08:30:57.411Z,12.14
2024-03-04T08:34:00.287Z,12.42
2024-03-04T08:37:03.096Z,12.44
2024-03-04T08:40:07.062Z,12.62
2024-03-04T08:43:10.563Z,12.60
2024-03-04T08:46:13.407Z,12.55
2024-03-04T08:49:16.210Z,12.49
2024-03-04T08:52:18.972Z,12.64
2024-03-04T08:55:21.725Z,12.89
2024-03-04T08:58:24.537Z,12.79
2024-03-04T09:01:32.724Z,12.60
2024-03-04T09:04:35.631Z,12.50
2024-03-04T09:07:38.552Z,12.83
2024-03-04T09:10:41.837Z,12.70
2024-03-04T09:13:45.600Z,13.01
2024-03-04T09:16:48.660Z,13.18
2024-03-04T09:19:51.536Z,12.96
2024-03-04T09:22:55.705Z,13.07
2024-03-04T09:25:58.503Z,13.34
2024-03-04T09:29:01.290Z,13.43
2024-03-04T09:32:04.015Z,13.34
2024-03-04T09:35:06.796Z,13.56
2024-03-04T09:38:09.668Z,13.30
2024-03-04T09:41:12.549Z,13.80
2024-03-04T09:44:15.890Z,13.73
2024-03-04T09:47:20.510Z,13.86
2024-03-04T09:50:24.290Z,14.29
2024-03-04T09:53:28.918Z,14.05
2024-03-04T09:56:31.936Z,14.02
2024-03-04T09:59:34.832Z,14.03
2024-03-04T10:02:37.740Z,14.09
2024-03-04T10:05:41.567Z,14.18
2024-03-04T10:08:44.632Z,14.38
2024-03-04T10:11:47.734Z,14.25
2024-03-04T10:15:08.875Z,14.12
2024-03-04T10:18:12.640Z,14.64
2024-03-04T10:21:15.509Z,14.65
2024-03-04T10:24:18.364Z,14.72
2024-03-04T10:27:21.046Z,14.84
2024-03-04T10:30:26.476Z,14.90
2024-03-04T10:33:33.404Z,14.72
2024-03-04T10:36:36.081Z,14.65
2024-03-04T10:39:39.080Z,14.90
2024-03-04T10:42:43.382Z,14.83
2024-03-04T10:45:46.113Z,14.46
2024-03-04T10:48:49.304Z,14.59
2024-03-04T10:52:04.089Z,14.62
2024-03-04T10:55:15.763Z,14.91
2024-03-04T10:58:18.647Z,14.96
2024-03-04T11:01:22.326Z,14.61
2024-03-04T11:04:26.147Z,14.70
2024-03-04T11:07:32.195Z,14.87
2024-03-04T11:10:43.010Z,15.04
2024-03-04T11:14:21.228Z,14.97
2024-03-04T11:17:52.014Z,14.87
2024-03-04T11:20:55.014Z,15.14
2024-03-04T11:23:58.080Z,15.29
2024-03-04T11:27:01.220Z,15.34
2024-03-04T11:30:07.266Z,15.46
2024-03-04T11:33:45.526Z,15.26
2024-03-04T11:36:51.296Z,14.98
2024-03-04T11:39:57.203Z,15.18
2024-03-04T11:43:00.095Z,15.41
2024-03-04T11:46:03.034Z,15.70
2024-03-04T11:49:28.631Z,15.53
2024-03-04T11:52:36.728Z,15.42
2024-03-04T11:55:39.561Z,15.34
2024-03-04T11:58:42.693Z,15.59
2024-03-04T12:01:45.578Z,15.62
2024-03-04T12:04:48.732Z,15.50
2024-03-04T12:07:51.631Z,15.60
2024-03-04T12:10:54.705Z,15.62
2024-03-04T12:13:57.960Z,15.79
2024-03-04T12:17:02.048Z,16.03
2024-03-04T12:20:05.501Z,15.82
2024-03-04T12:23:08.333Z,15.80
2024-03-04T12:26:14.969Z,15.25
2024-03-04T12:29:25.241Z,15.04
2024-03-04T12:32:28.878Z,15.35
2024-03-04T12:35:31.742Z,15.49
2024-03-04T12:38:35.114Z,15.22
2024-03-04T12:41:37.886Z,15.51
2024-03-04T12:44:40.750Z,15.92
2024-03-04T12:47:43.532Z,16.07
2024-03-04T12:50:47.185Z,15.82
2024-03-04T12:53:50.002Z,15.57
2024-03-04T12:56:52.824Z,15.87
2024-03-04T12:59:58.539Z,16.10
2024-03-04T13:03:01.306Z,15.65
2024-03-04T13:06:04.346Z,15.44
2024-03-04T13:09:07.260Z,15.91
2024-03-04T13:12:11.002Z,15.72
2024-03-04T13:15:13.905Z,15.71
2024-03-04T13:18:16.728Z,15.76
2024-03-04T13:21:19.708Z,15.97
2024-03-04T13:24:22.611Z,15.72
2024-03-04T13:27:26.130Z,15.52
2024-03-04T13:30:29.034Z,15.62
2024-03-04T13:33:31.945Z,16.11
2024-03-04T13:36:35.048Z,16.15
2024-03-04T13:39:38.091Z,15.98
2024-03-04T13:42:42.573Z,15.94
2024-03-04T13:45:45.392Z,15.89
2024-03-04T13:48:48.706Z,15.91
2024-03-04T13:51:51.755Z,15.59
2024-03-04T13:54:54.572Z,15.49
2024-03-04T13:57:57.514Z,15.49
2024-03-04T14:01:01.133Z,15.64
2024-03-04T14:04:04.268Z,15.64
2024-03-04T14:07:07.862Z,15.47
2024-03-04T14:10:14.034Z,15.02
2024-03-04T14:13:17.196Z,15.29
2024-03-04T14:16:20.143Z,15.71
2024-03-04T14:19:23.355Z,15.34
2024-03-04T14:22:26.489Z,15.13
2024-03-04T14:25:29.428Z,15.71
2024-03-04T14:28:33.264Z,15.95
2024-03-04T14:31:36.418Z,16.10
2024-03-04T14:34:39.723Z,16.14
2024-03-04T14:37:42.895Z,16.15
2024-03-04T14:40:46.522Z,16.19
2024-03-04T14:43:49.808Z,15.94
2024-03-04T14:46:52.997Z,15.91
2024-03-04T14:49:55.918Z,16.13
2024-03-04T14:52:59.607Z,16.27
2024-03-04T14:56:02.781Z,16.15
2024-03-04T14:59:05.718Z,16.27
2024-03-04T15:02:08.833Z,16.14
2024-03-04T15:05:13.252Z,15.88
2024-03-04T15:08:17.914Z,15.79
2024-03-04T15:11:21.411Z,15.93
2024-03-04T15:14:24.400Z,15.68
2024-03-04T15:17:27.211Z,15.58
2024-03-04T15:20:30.104Z,15.59
2024-03-04T15:23:34.506Z,15.05
2024-03-04T15:26:37.989Z,15.31
2024-03-04T15:29:40.835Z,15.40
2024-03-04T15:32:46.557Z,15.23
2024-03-04T15:35:51.376Z,15.11
2024-03-04T15:38:55.989Z,15.07
2024-03-04T15:41:58.740Z,15.19
2024-03-04T15:45:02.195Z,15.13
2024-03-04T15:48:08.174Z,15.06
2024-03-04T15:51:11.037Z,14.99
2024-03-04T15:54:13.906Z,14.97
2024-03-04T15:57:16.855Z,14.94
2024-03-04T16:00:19.720Z,14.87
2024-03-04T16:03:22.474Z,14.83
2024-03-04T16:06:35.350Z,14.76
2024-03-04T16:09:38.337Z,14.70
2024-03-04T16:12:41.187Z,14.49
2024-03-04T16:15:52.440Z,14.36
2024-03-04T16:18:57.321Z,14.22
2024-03-04T16:22:00.321Z,14.18
2024-03-04T16:25:03.411Z,14.03
2024-03-04T16:28:07.183Z,13.87
2024-03-04T16:31:10.969Z,13.71
2024-03-04T16:34:14.338Z,13.55
2024-03-04T16:37:17.599Z,13.40
2024-03-04T16:40:20.609Z,13.32
2024-03-04T16:43:23.934Z,13.14
2024-03-04T16:46:26.796Z,13.13
2024-03-04T16:49:30.101Z,13.07
2024-03-04T16:52:33.331Z,13.00
2024-03-04T16:55:36.395Z,12.88
2024-03-04T16:58:39.535Z,12.77
2024-03-04T17:01:46.030Z,12.54
2024-03-04T17:04:53.034Z,12.59
2024-03-04T17:07:55.953Z,12.47
2024-03-04T17:10:59.176Z,12.33
2024-03-04T17:14:02.221Z,12.23
2024-03-04T17:17:08.135Z,12.01
2024-03-04T17:20:11.977Z,11.86
2024-03-04T17:23:16.628Z,11.84
2024-03-04T17:26:20.092Z,11.75
2024-03-04T17:29:23.108Z,11.69
2024-03-04T17:32:26.175Z,11.57
2024-03-04T17:35:29.169Z,11.51
2024-03-04T17:38:32.208Z,11.46
2024-03-04T17:41:35.661Z,11.41
2024-03-04T17:44:41.118Z,11.33
2024-03-04T17:47:44.199Z,11.19
2024-03-04T17:50:47.202Z,11.23
2024-03-04T17:53:50.151Z,11.09
2024-03-04T17:56:53.146Z,11.00
2024-03-04T17:59:56.314Z,10.88
2024-03-04T18:02:59.338Z,10.85
2024-03-04T18:06:02.321Z,10.71
2024-03-04T18:09:05.541Z,10.55
2024-03-04T18:12:08.789Z,10.46
2024-03-04T18:15:11.807Z,10.44
2024-03-04T18:18:14.595Z,10.31
2024-03-04T18:21:18.114Z,10.34
2024-03-04T18:24:21.058Z,10.35
2024-03-04T18:27:24.273Z,10.20
2024-03-04T18:30:31.806Z,10.10
2024-03-04T18:33:35.256Z,10.03
2024-03-04T18:36:47.962Z,9.90
2024-03-04T18:40:01.244Z,9.89
2024-03-04T18:43:14.388Z,9.85
2024-03-04T18:46:17.904Z,9.80
2024-03-04T18:49:21.080Z,9.69
2024-03-04T18:52:26.021Z,9.79
2024-03-04T18:55:29.341Z,9.67
2024-03-04T18:58:32.543Z,9.56
2024-03-04T19:01:35.660Z,9.39
2024-03-04T19:04:39.777Z,9.39
2024-03-04T19:07:42.904Z,9.40
2024-03-04T19:10:48.707Z,9.33
2024-03-04T19:13:53.825Z,9.20
2024-03-04T19:16:56.663Z,9.14
2024-03-04T19:19:59.794Z,9.17
2024-03-04T19:23:02.824Z,9.09
2024-03-04T19:26:07.402Z,9.06
2024-03-04T19:29:14.844Z,9.00
2024-03-04T19:32:17.693Z,8.93
2024-03-04T19:35:22.590Z,8.98
2024-03-04T19:38:25.609Z,8.99
2024-03-04T19:41:29.286Z,8.87
2024-03-04T19:44:32.898Z,8.82
2024-03-04T19:47:37.119Z,8.75
2024-03-04T19:50:40.027Z,8.75
2024-03-04T19:53:45.685Z,8.75
2024-03-04T19:56:51.663Z,8.65
2024-03-04T19:59:56.392Z,8.58
2024-03-04T20:03:04.038Z,8.56
2024-03-04T20:06:07.816Z,8.59
2024-03-04T20:09:15.502Z,8.42
2024-03-04T20:12:20.401Z,8.42
2024-03-04T20:15:23.209Z,8.41
2024-03-04T20:18:28.973Z,8.32
2024-03-04T20:21:33.874Z,8.34
2024-03-04T20:24:37.819Z,8.30
2024-03-04T20:27:40.925Z,8.31
2024-03-04T20:30:48.932Z,8.34
2024-03-04T20:33:52.605Z,8.26
2024-03-04T20:36:56.216Z,8.18
2024-03-04T20:40:02.337Z,8.09
2024-03-04T20:43:06.231Z,7.98
2024-03-04T20:46:09.635Z,7.93
2024-03-04T20:49:13.792Z,7.90
2024-03-04T20:52:19.105Z,7.83
2024-03-04T20:55:23.162Z,7.80
2024-03-04T20:58:25.900Z,7.81
2024-03-04T21:01:28.982Z,7.79
2024-03-04T21:04:32.159Z,7.79
2024-03-04T21:07:40.910Z,7.74
2024-03-04T21:10:44.368Z,7.77
2024-03-04T21:13:51.361Z,7.74
2024-03-04T21:16:54.904Z,7.67
2024-03-04T21:19:58.030Z,7.59
2024-03-04T21:23:04.507Z,7.56
2024-03-04T21:26:07.823Z,7.51
2024-03-04T21:29:10.985Z,7.43
2024-03-04T21:32:14.145Z,7.41
2024-03-04T21:35:20.670Z,7.58
2024-03-04T21:38:23.934Z,7.56
2024-03-04T21:41:26.780Z,7.51
2024-03-04T21:44:29.696Z,7.43
2024-03-04T21:47:32.538Z,7.39
2024-03-04T21:50:36.053Z,7.33
2024-03-04T21:53:39.018Z,7.29
2024-03-04T21:56:44.944Z,7.28
2024-03-04T21:59:48.590Z,7.28
2024-03-04T22:02:51.624Z,7.31
2024-03-04T22:05:55.402Z,7.26
2024-03-04T22:08:58.337Z,7.21
2024-03-04T22:12:01.475Z,7.10
2024-03-04T22:15:06.030Z,7.14
2024-03-04T22:18:11.599Z,7.14
2024-03-04T22:21:14.439Z,7.11
2024-03-04T22:24:17.994Z,7.13
2024-03-04T22:27:21.857Z,7.11
2024-03-04T22:30:24.710Z,7.11
2024-03-04T22:33:28.183Z,7.09
2024-03-04T22:36:32.298Z,7.11
2024-03-04T22:39:39.432Z,7.14
2024-03-04T22:42:45.496Z,7.04
2024-03-04T22:45:48.265Z,7.04
2024-03-04T22:48:51.113Z,7.00
2024-03-04T22:51:54.233Z,6.93
2024-03-04T22:54:56.938Z,6.93
2024-03-04T22:57:59.917Z,6.93
2024-03-04T23:01:05.630Z,6.88
2024-03-04T23:04:08.733Z,6.97
2024-03-04T23:07:12.832Z,7.03
2024-03-04T23:10:16.757Z,6.97
2024-03-04T23:13:20.671Z,7.00
2024-03-04T23:16:26.758Z,7.01
2024-03-04T23:19:29.591Z,6.97
2024-03-04T23:22:33.600Z,7.07
2024-03-04T23:25:36.312Z,7.02
2024-03-04T23:28:40.148Z,6.90
2024-03-04T23:31:42.908Z,6.89
2024-03-04T23:34:45.854Z,6.67
2024-03-04T23:37:49.390Z,6.76
2024-03-04T23:40:52.158Z,6.78
2024-03-04T23:43:55.647Z,6.74
2024-03-04T23:46:58.623Z,6.78
2024-03-04T23:50:04.507Z,6.95
2024-03-04T23:53:07.452Z,6.98
2024-03-04T23:56:10.362Z,6.99
2024-03-04T23:59:13.202Z,6.97
